sensor_id;sensor_type;location;lat;lon;timestamp;P1;durP1;ratioP1;P2;durP2;ratioP2
5279;SDS011;2663;53.588;10.010;2024-03-02T00:00:31;25.20;;;14.73;;
5279;SDS011;2663;53.588;10.010;2024-03-02T00:02:58;26.37;;;14.83;;
5279;SDS011;2663;53.588;10.010;2024-03-02T00:05:24;32.80;;;17.50;;
5279;SDS011;2663;53.588;10.010;2024-03-02T00:07:54;37.67;;;20.67;;
5279;SDS011;2663;53.588;10.010;2024-03-02T00:10:26;27.60;;;15.60;;
5279;SDS011;2663;53.588;10.010;2024-03-02T00:13:03;24.63;;;13.40;;
5279;SDS011;2663;53.588;10.010;2024-03-02T00:17:56;26.83;;;14.73;;
5279;SDS011;2663;53.588;10.010;2024-03-02T00:20:25;27.73;;;14.90;;
5279;SDS011;2663;53.588;10.010;2024-03-02T00:23:02;24.40;;;14.93;;
5279;SDS011;2663;53.588;10.010;2024-03-02T00:25:39;29.53;;;16.67;;
5279;SDS011;2663;53.588;10.010;2024-03-02T00:28:22;26.13;;;14.20;;
5279;SDS011;2663;53.588;10.010;2024-03-02T00:30:51;27.83;;;14.73;;
5279;SDS011;2663;53.588;10.010;2024-03-02T00:33:26;29.90;;;14.60;;
5279;SDS011;2663;53.588;10.010;2024-03-02T00:35:56;28.33;;;15.10;;
5279;SDS011;2663;53.588;10.010;2024-03-02T00:38:23;25.90;;;15.83;;
5279;SDS011;2663;53.588;10.010;2024-03-02T00:40:50;30.37;;;16.80;;
5279;SDS011;2663;53.588;10.010;2024-03-02T00:43:30;31.97;;;16.97;;
5279;SDS011;2663;53.588;10.010;2024-03-02T00:46:40;30.80;;;17.90;;
5279;SDS011;2663;53.588;10.010;2024-03-02T00:51:51;36.37;;;17.60;;
5279;SDS011;2663;53.588;10.010;2024-03-02T00:54:23;33.97;;;17.80;;
5279;SDS011;2663;53.588;10.010;2024-03-02T00:56:54;33.83;;;18.43;;
5279;SDS011;2663;53.588;10.010;2024-03-02T00:59:23;37.80;;;19.80;;
5279;SDS011;2663;53.588;10.010;2024-03-02T01:01:50;37.10;;;19.77;;
5279;SDS011;2663;53.588;10.010;2024-03-02T01:04:17;39.43;;;18.33;;
5279;SDS011;2663;53.588;10.010;2024-03-02T01:06:44;39.90;;;19.13;;
5279;SDS011;2663;53.588;10.010;2024-03-02T01:09:12;40.63;;;19.97;;
5279;SDS011;2663;53.588;10.010;2024-03-02T01:11:39;46.07;;;25.07;;
5279;SDS011;2663;53.588;10.010;2024-03-02T01:14:06;59.43;;;30.93;;
5279;SDS011;2663;53.588;10.010;2024-03-02T01:16:32;35.47;;;19.50;;
5279;SDS011;2663;53.588;10.010;2024-03-02T01:18:59;50.03;;;24.40;;
5279;SDS011;2663;53.588;10.010;2024-03-02T01:21:26;45.60;;;24.00;;
5279;SDS011;2663;53.588;10.010;2024-03-02T01:23:53;43.33;;;22.67;;
5279;SDS011;2663;53.588;10.010;2024-03-02T01:26:19;40.20;;;21.67;;
5279;SDS011;2663;53.588;10.010;2024-03-02T01:28:46;47.87;;;24.10;;
5279;SDS011;2663;53.588;10.010;2024-03-02T01:31:13;47.63;;;23.57;;
5279;SDS011;2663;53.588;10.010;2024-03-02T01:33:40;45.30;;;23.23;;
5279;SDS011;2663;53.588;10.010;2024-03-02T01:36:07;47.63;;;23.20;;
5279;SDS011;2663;53.588;10.010;2024-03-02T01:38:35;46.03;;;22.00;;
5279;SDS011;2663;53.588;10.010;2024-03-02T01:41:01;152.80;;;66.73;;
5279;SDS011;2663;53.588;10.010;2024-03-02T01:43:28;60.90;;;29.27;;
5279;SDS011;2663;53.588;10.010;2024-03-02T01:45:55;49.40;;;24.80;;
5279;SDS011;2663;53.588;10.010;2024-03-02T01:48:23;54.07;;;23.40;;
5279;SDS011;2663;53.588;10.010;2024-03-02T01:50:49;47.63;;;24.73;;
5279;SDS011;2663;53.588;10.010;2024-03-02T01:53:16;49.27;;;24.83;;
5279;SDS011;2663;53.588;10.010;2024-03-02T01:55:43;53.43;;;25.53;;
5279;SDS011;2663;53.588;10.010;2024-03-02T01:58:10;46.50;;;23.60;;
5279;SDS011;2663;53.588;10.010;2024-03-02T02:00:37;45.30;;;23.33;;
5279;SDS011;2663;53.588;10.010;2024-03-02T02:03:04;48.03;;;24.50;;
5279;SDS011;2663;53.588;10.010;2024-03-02T02:05:30;52.97;;;25.77;;
5279;SDS011;2663;53.588;10.010;2024-03-02T02:07:57;43.63;;;24.90;;
5279;SDS011;2663;53.588;10.010;2024-03-02T02:10:24;49.23;;;26.07;;
5279;SDS011;2663;53.588;10.010;2024-03-02T02:12:51;45.77;;;23.97;;
5279;SDS011;2663;53.588;10.010;2024-03-02T02:15:25;52.13;;;25.60;;
5279;SDS011;2663;53.588;10.010;2024-03-02T02:17:54;51.83;;;25.83;;
5279;SDS011;2663;53.588;10.010;2024-03-02T02:20:21;50.60;;;24.53;;
5279;SDS011;2663;53.588;10.010;2024-03-02T02:22:55;59.10;;;25.73;;
5279;SDS011;2663;53.588;10.010;2024-03-02T02:25:26;54.97;;;27.07;;
5279;SDS011;2663;53.588;10.010;2024-03-02T02:27:53;52.37;;;26.60;;
5279;SDS011;2663;53.588;10.010;2024-03-02T02:30:28;59.00;;;26.20;;
5279;SDS011;2663;53.588;10.010;2024-03-02T02:32:56;50.43;;;25.67;;
5279;SDS011;2663;53.588;10.010;2024-03-02T02:35:23;63.33;;;27.23;;
5279;SDS011;2663;53.588;10.010;2024-03-02T02:37:53;50.80;;;25.43;;
5279;SDS011;2663;53.588;10.010;2024-03-02T02:40:21;54.70;;;25.40;;
5279;SDS011;2663;53.588;10.010;2024-03-02T02:42:48;42.50;;;23.03;;
5279;SDS011;2663;53.588;10.010;2024-03-02T02:45:16;43.27;;;24.67;;
5279;SDS011;2663;53.588;10.010;2024-03-02T02:47:44;48.93;;;25.00;;
5279;SDS011;2663;53.588;10.010;2024-03-02T02:50:11;51.00;;;25.60;;
5279;SDS011;2663;53.588;10.010;2024-03-02T02:52:39;51.57;;;23.97;;
5279;SDS011;2663;53.588;10.010;2024-03-02T02:55:08;42.67;;;23.90;;
5279;SDS011;2663;53.588;10.010;2024-03-02T02:57:39;47.23;;;24.43;;
5279;SDS011;2663;53.588;10.010;2024-03-02T03:00:12;50.40;;;26.70;;
5279;SDS011;2663;53.588;10.010;2024-03-02T03:02:42;44.37;;;25.43;;
5279;SDS011;2663;53.588;10.010;2024-03-02T03:05:11;46.50;;;24.70;;
5279;SDS011;2663;53.588;10.010;2024-03-02T03:07:39;51.37;;;24.13;;
5279;SDS011;2663;53.588;10.010;2024-03-02T03:10:07;46.03;;;24.40;;
5279;SDS011;2663;53.588;10.010;2024-03-02T03:12:34;51.03;;;24.90;;
5279;SDS011;2663;53.588;10.010;2024-03-02T03:15:02;47.80;;;23.50;;
5279;SDS011;2663;53.588;10.010;2024-03-02T03:17:30;43.57;;;23.63;;
5279;SDS011;2663;53.588;10.010;2024-03-02T03:19:57;44.10;;;24.20;;
5279;SDS011;2663;53.588;10.010;2024-03-02T03:22:24;48.73;;;25.23;;
5279;SDS011;2663;53.588;10.010;2024-03-02T03:24:50;52.00;;;24.53;;
5279;SDS011;2663;53.588;10.010;2024-03-02T03:27:17;48.87;;;25.57;;
5279;SDS011;2663;53.588;10.010;2024-03-02T03:29:46;47.50;;;24.37;;
5279;SDS011;2663;53.588;10.010;2024-03-02T03:32:13;46.00;;;25.20;;
5279;SDS011;2663;53.588;10.010;2024-03-02T03:34:40;50.07;;;25.60;;
5279;SDS011;2663;53.588;10.010;2024-03-02T03:37:07;51.30;;;25.27;;
5279;SDS011;2663;53.588;10.010;2024-03-02T03:39:34;51.90;;;23.70;;
5279;SDS011;2663;53.588;10.010;2024-03-02T03:42:02;45.13;;;25.10;;
5279;SDS011;2663;53.588;10.010;2024-03-02T03:44:29;49.23;;;24.80;;
5279;SDS011;2663;53.588;10.010;2024-03-02T03:46:56;45.90;;;24.07;;
5279;SDS011;2663;53.588;10.010;2024-03-02T03:49:23;46.60;;;23.70;;
5279;SDS011;2663;53.588;10.010;2024-03-02T03:51:50;52.63;;;24.03;;
5279;SDS011;2663;53.588;10.010;2024-03-02T03:54:16;60.97;;;24.80;;
5279;SDS011;2663;53.588;10.010;2024-03-02T03:56:43;45.00;;;23.13;;
5279;SDS011;2663;53.588;10.010;2024-03-02T03:59:10;46.93;;;25.63;;
5279;SDS011;2663;53.588;10.010;2024-03-02T04:01:37;45.90;;;24.07;;
5279;SDS011;2663;53.588;10.010;2024-03-02T04:04:04;49.97;;;24.70;;
5279;SDS011;2663;53.588;10.010;2024-03-02T04:06:30;44.00;;;23.23;;
5279;SDS011;2663;53.588;10.010;2024-03-02T04:08:58;50.20;;;23.20;;
5279;SDS011;2663;53.588;10.010;2024-03-02T04:11:25;56.43;;;23.87;;
5279;SDS011;2663;53.588;10.010;2024-03-02T04:13:51;43.77;;;23.40;;
5279;SDS011;2663;53.588;10.010;2024-03-02T04:16:21;55.60;;;23.53;;
5279;SDS011;2663;53.588;10.010;2024-03-02T04:18:47;47.00;;;24.17;;
5279;SDS011;2663;53.588;10.010;2024-03-02T04:21:14;49.00;;;23.17;;
5279;SDS011;2663;53.588;10.010;2024-03-02T04:23:41;42.37;;;23.93;;
5279;SDS011;2663;53.588;10.010;2024-03-02T04:26:07;44.40;;;23.23;;
5279;SDS011;2663;53.588;10.010;2024-03-02T04:28:34;48.73;;;23.60;;
5279;SDS011;2663;53.588;10.010;2024-03-02T04:31:01;42.47;;;22.67;;
5279;SDS011;2663;53.588;10.010;2024-03-02T04:33:28;45.47;;;23.87;;
5279;SDS011;2663;53.588;10.010;2024-03-02T04:35:54;47.07;;;22.93;;
5279;SDS011;2663;53.588;10.010;2024-03-02T04:38:21;48.20;;;23.90;;
5279;SDS011;2663;53.588;10.010;2024-03-02T04:40:49;48.37;;;23.83;;
5279;SDS011;2663;53.588;10.010;2024-03-02T04:43:15;37.37;;;22.17;;
5279;SDS011;2663;53.588;10.010;2024-03-02T04:45:42;42.70;;;23.90;;
5279;SDS011;2663;53.588;10.010;2024-03-02T04:48:09;39.00;;;21.73;;
5279;SDS011;2663;53.588;10.010;2024-03-02T04:50:36;40.67;;;21.97;;
5279;SDS011;2663;53.588;10.010;2024-03-02T04:53:03;45.00;;;22.60;;
5279;SDS011;2663;53.588;10.010;2024-03-02T04:55:30;43.27;;;24.23;;
5279;SDS011;2663;53.588;10.010;2024-03-02T04:58:05;46.27;;;23.80;;
5279;SDS011;2663;53.588;10.010;2024-03-02T05:00:33;45.33;;;24.37;;
5279;SDS011;2663;53.588;10.010;2024-03-02T05:03:00;44.17;;;23.77;;
5279;SDS011;2663;53.588;10.010;2024-03-02T05:05:28;43.20;;;22.20;;
5279;SDS011;2663;53.588;10.010;2024-03-02T05:07:54;40.70;;;23.07;;
5279;SDS011;2663;53.588;10.010;2024-03-02T05:10:21;43.23;;;22.77;;
5279;SDS011;2663;53.588;10.010;2024-03-02T05:12:48;41.83;;;22.00;;
5279;SDS011;2663;53.588;10.010;2024-03-02T05:15:25;42.27;;;22.57;;
5279;SDS011;2663;53.588;10.010;2024-03-02T05:17:52;38.70;;;21.90;;
5279;SDS011;2663;53.588;10.010;2024-03-02T05:20:19;44.40;;;24.37;;
5279;SDS011;2663;53.588;10.010;2024-03-02T05:22:46;43.13;;;21.23;;
5279;SDS011;2663;53.588;10.010;2024-03-02T05:25:13;42.40;;;22.43;;
5279;SDS011;2663;53.588;10.010;2024-03-02T05:27:40;43.07;;;22.70;;
5279;SDS011;2663;53.588;10.010;2024-03-02T05:30:07;45.57;;;22.63;;
5279;SDS011;2663;53.588;10.010;2024-03-02T05:32:35;43.03;;;21.83;;
5279;SDS011;2663;53.588;10.010;2024-03-02T05:35:01;39.70;;;20.47;;
5279;SDS011;2663;53.588;10.010;2024-03-02T05:37:29;40.77;;;20.27;;
5279;SDS011;2663;53.588;10.010;2024-03-02T05:39:56;36.37;;;20.80;;
5279;SDS011;2663;53.588;10.010;2024-03-02T05:42:23;39.57;;;22.73;;
5279;SDS011;2663;53.588;10.010;2024-03-02T05:44:49;43.63;;;20.57;;
5279;SDS011;2663;53.588;10.010;2024-03-02T05:47:16;41.93;;;23.23;;
5279;SDS011;2663;53.588;10.010;2024-03-02T05:49:43;36.43;;;19.37;;
5279;SDS011;2663;53.588;10.010;2024-03-02T05:52:10;40.53;;;21.93;;
5279;SDS011;2663;53.588;10.010;2024-03-02T05:54:37;37.57;;;21.30;;
5279;SDS011;2663;53.588;10.010;2024-03-02T05:57:05;37.40;;;21.13;;
5279;SDS011;2663;53.588;10.010;2024-03-02T05:59:58;37.60;;;20.83;;
5279;SDS011;2663;53.588;10.010;2024-03-02T06:02:25;37.97;;;21.43;;
5279;SDS011;2663;53.588;10.010;2024-03-02T06:04:53;39.00;;;20.53;;
5279;SDS011;2663;53.588;10.010;2024-03-02T06:07:22;39.23;;;20.90;;
5279;SDS011;2663;53.588;10.010;2024-03-02T06:09:48;40.10;;;21.00;;
5279;SDS011;2663;53.588;10.010;2024-03-02T06:12:17;42.60;;;21.07;;
5279;SDS011;2663;53.588;10.010;2024-03-02T06:14:45;36.30;;;20.60;;
5279;SDS011;2663;53.588;10.010;2024-03-02T06:17:12;36.37;;;19.93;;
5279;SDS011;2663;53.588;10.010;2024-03-02T06:19:38;36.10;;;20.50;;
5279;SDS011;2663;53.588;10.010;2024-03-02T06:22:05;39.77;;;20.23;;
5279;SDS011;2663;53.588;10.010;2024-03-02T06:24:32;38.07;;;20.03;;
5279;SDS011;2663;53.588;10.010;2024-03-02T06:26:59;35.93;;;20.80;;
5279;SDS011;2663;53.588;10.010;2024-03-02T06:29:25;39.70;;;21.40;;
5279;SDS011;2663;53.588;10.010;2024-03-02T06:31:52;35.73;;;20.23;;
5279;SDS011;2663;53.588;10.010;2024-03-02T06:34:20;43.23;;;22.30;;
5279;SDS011;2663;53.588;10.010;2024-03-02T06:36:47;40.17;;;20.83;;
5279;SDS011;2663;53.588;10.010;2024-03-02T06:39:14;37.83;;;20.93;;
5279;SDS011;2663;53.588;10.010;2024-03-02T06:41:41;43.60;;;21.83;;
5279;SDS011;2663;53.588;10.010;2024-03-02T06:44:08;40.27;;;20.23;;
5279;SDS011;2663;53.588;10.010;2024-03-02T06:46:35;39.63;;;20.60;;
5279;SDS011;2663;53.588;10.010;2024-03-02T06:49:02;49.90;;;19.60;;
5279;SDS011;2663;53.588;10.010;2024-03-02T06:51:30;38.27;;;19.83;;
5279;SDS011;2663;53.588;10.010;2024-03-02T06:53:57;39.10;;;21.73;;
5279;SDS011;2663;53.588;10.010;2024-03-02T06:56:24;40.33;;;19.23;;
5279;SDS011;2663;53.588;10.010;2024-03-02T06:58:50;34.03;;;18.60;;
5279;SDS011;2663;53.588;10.010;2024-03-02T07:01:17;33.90;;;19.67;;
5279;SDS011;2663;53.588;10.010;2024-03-02T07:03:44;33.73;;;20.03;;
5279;SDS011;2663;53.588;10.010;2024-03-02T07:06:10;36.13;;;21.50;;
5279;SDS011;2663;53.588;10.010;2024-03-02T07:08:37;38.73;;;19.87;;
5279;SDS011;2663;53.588;10.010;2024-03-02T07:11:04;33.73;;;20.27;;
5279;SDS011;2663;53.588;10.010;2024-03-02T07:13:31;41.80;;;20.80;;
5279;SDS011;2663;53.588;10.010;2024-03-02T07:15:57;36.87;;;19.87;;
5279;SDS011;2663;53.588;10.010;2024-03-02T07:18:30;40.23;;;19.90;;
5279;SDS011;2663;53.588;10.010;2024-03-02T07:20:57;35.00;;;18.43;;
5279;SDS011;2663;53.588;10.010;2024-03-02T07:23:25;32.80;;;19.27;;
5279;SDS011;2663;53.588;10.010;2024-03-02T07:25:53;36.37;;;20.97;;
5279;SDS011;2663;53.588;10.010;2024-03-02T07:28:26;34.77;;;18.80;;
5279;SDS011;2663;53.588;10.010;2024-03-02T07:31:03;36.70;;;20.90;;
5279;SDS011;2663;53.588;10.010;2024-03-02T07:33:31;38.43;;;20.13;;
5279;SDS011;2663;53.588;10.010;2024-03-02T07:35:58;36.70;;;20.37;;
5279;SDS011;2663;53.588;10.010;2024-03-02T07:38:30;35.70;;;19.40;;
5279;SDS011;2663;53.588;10.010;2024-03-02T07:40:58;32.20;;;17.87;;
5279;SDS011;2663;53.588;10.010;2024-03-02T07:43:24;38.60;;;21.13;;
5279;SDS011;2663;53.588;10.010;2024-03-02T07:45:51;41.03;;;20.80;;
5279;SDS011;2663;53.588;10.010;2024-03-02T07:48:19;31.67;;;20.10;;
5279;SDS011;2663;53.588;10.010;2024-03-02T07:50:46;37.37;;;19.80;;
5279;SDS011;2663;53.588;10.010;2024-03-02T07:53:12;35.60;;;20.20;;
5279;SDS011;2663;53.588;10.010;2024-03-02T07:55:40;37.90;;;19.90;;
5279;SDS011;2663;53.588;10.010;2024-03-02T07:58:07;36.40;;;20.90;;
5279;SDS011;2663;53.588;10.010;2024-03-02T08:00:34;37.03;;;21.00;;
5279;SDS011;2663;53.588;10.010;2024-03-02T08:03:01;42.60;;;22.23;;
5279;SDS011;2663;53.588;10.010;2024-03-02T08:05:28;40.00;;;19.93;;
5279;SDS011;2663;53.588;10.010;2024-03-02T08:07:55;38.90;;;21.23;;
5279;SDS011;2663;53.588;10.010;2024-03-02T08:10:21;36.53;;;20.30;;
5279;SDS011;2663;53.588;10.010;2024-03-02T08:12:48;42.77;;;20.90;;
5279;SDS011;2663;53.588;10.010;2024-03-02T08:15:15;37.57;;;20.97;;
5279;SDS011;2663;53.588;10.010;2024-03-02T08:17:42;39.90;;;21.83;;
5279;SDS011;2663;53.588;10.010;2024-03-02T08:20:11;34.50;;;21.07;;
5279;SDS011;2663;53.588;10.010;2024-03-02T08:22:39;48.40;;;23.30;;
5279;SDS011;2663;53.588;10.010;2024-03-02T08:25:06;39.13;;;22.30;;
5279;SDS011;2663;53.588;10.010;2024-03-02T08:27:34;36.70;;;20.17;;
5279;SDS011;2663;53.588;10.010;2024-03-02T08:30:01;44.83;;;22.80;;
5279;SDS011;2663;53.588;10.010;2024-03-02T08:32:32;35.67;;;20.60;;
5279;SDS011;2663;53.588;10.010;2024-03-02T08:34:59;40.57;;;20.50;;
5279;SDS011;2663;53.588;10.010;2024-03-02T08:37:26;43.73;;;20.87;;
5279;SDS011;2663;53.588;10.010;2024-03-02T08:39:53;40.20;;;22.90;;
5279;SDS011;2663;53.588;10.010;2024-03-02T08:42:20;36.30;;;21.47;;
5279;SDS011;2663;53.588;10.010;2024-03-02T08:44:47;43.10;;;22.63;;
5279;SDS011;2663;53.588;10.010;2024-03-02T08:47:14;35.43;;;20.80;;
5279;SDS011;2663;53.588;10.010;2024-03-02T08:49:41;39.50;;;21.83;;
5279;SDS011;2663;53.588;10.010;2024-03-02T08:52:07;44.10;;;21.60;;
5279;SDS011;2663;53.588;10.010;2024-03-02T08:54:35;41.13;;;22.07;;
5279;SDS011;2663;53.588;10.010;2024-03-02T08:57:05;36.70;;;21.50;;
5279;SDS011;2663;53.588;10.010;2024-03-02T08:59:32;37.07;;;21.60;;
5279;SDS011;2663;53.588;10.010;2024-03-02T09:01:59;40.83;;;22.10;;
5279;SDS011;2663;53.588;10.010;2024-03-02T09:04:26;35.40;;;20.60;;
5279;SDS011;2663;53.588;10.010;2024-03-02T09:06:56;41.30;;;22.13;;
5279;SDS011;2663;53.588;10.010;2024-03-02T09:09:23;41.10;;;21.67;;
5279;SDS011;2663;53.588;10.010;2024-03-02T09:11:50;38.37;;;21.13;;
5279;SDS011;2663;53.588;10.010;2024-03-02T09:14:17;42.90;;;21.93;;
5279;SDS011;2663;53.588;10.010;2024-03-02T09:16:44;44.97;;;22.30;;
5279;SDS011;2663;53.588;10.010;2024-03-02T09:19:10;38.33;;;21.67;;
5279;SDS011;2663;53.588;10.010;2024-03-02T09:21:37;39.93;;;21.40;;
5279;SDS011;2663;53.588;10.010;2024-03-02T09:24:04;36.10;;;20.27;;
5279;SDS011;2663;53.588;10.010;2024-03-02T09:26:33;31.47;;;20.57;;
5279;SDS011;2663;53.588;10.010;2024-03-02T09:28:59;44.50;;;21.40;;
5279;SDS011;2663;53.588;10.010;2024-03-02T09:31:26;33.83;;;19.63;;
5279;SDS011;2663;53.588;10.010;2024-03-02T09:33:53;37.23;;;20.47;;
5279;SDS011;2663;53.588;10.010;2024-03-02T09:36:20;31.90;;;20.23;;
5279;SDS011;2663;53.588;10.010;2024-03-02T09:38:48;31.07;;;18.87;;
5279;SDS011;2663;53.588;10.010;2024-03-02T09:41:15;33.07;;;20.80;;
5279;SDS011;2663;53.588;10.010;2024-03-02T09:43:42;36.97;;;20.67;;
5279;SDS011;2663;53.588;10.010;2024-03-02T09:46:09;47.63;;;21.07;;
5279;SDS011;2663;53.588;10.010;2024-03-02T09:48:37;34.50;;;19.27;;
5279;SDS011;2663;53.588;10.010;2024-03-02T09:51:04;44.97;;;20.20;;
5279;SDS011;2663;53.588;10.010;2024-03-02T09:53:32;34.30;;;20.47;;
5279;SDS011;2663;53.588;10.010;2024-03-02T09:56:00;33.27;;;19.67;;
5279;SDS011;2663;53.588;10.010;2024-03-02T09:58:27;31.27;;;17.73;;
5279;SDS011;2663;53.588;10.010;2024-03-02T10:00:54;47.53;;;19.70;;
5279;SDS011;2663;53.588;10.010;2024-03-02T10:03:22;33.27;;;18.27;;
5279;SDS011;2663;53.588;10.010;2024-03-02T10:05:50;33.57;;;18.43;;
5279;SDS011;2663;53.588;10.010;2024-03-02T10:08:18;31.50;;;18.53;;
5279;SDS011;2663;53.588;10.010;2024-03-02T10:10:45;35.70;;;17.97;;
5279;SDS011;2663;53.588;10.010;2024-03-02T10:13:13;33.77;;;18.93;;
5279;SDS011;2663;53.588;10.010;2024-03-02T10:15:40;29.97;;;15.97;;
5279;SDS011;2663;53.588;10.010;2024-03-02T10:18:08;30.30;;;17.47;;
5279;SDS011;2663;53.588;10.010;2024-03-02T10:20:37;29.73;;;16.60;;
5279;SDS011;2663;53.588;10.010;2024-03-02T10:25:38;28.23;;;14.73;;
5279;SDS011;2663;53.588;10.010;2024-03-02T10:28:19;29.27;;;15.57;;
5279;SDS011;2663;53.588;10.010;2024-03-02T10:30:47;27.00;;;15.73;;
5279;SDS011;2663;53.588;10.010;2024-03-02T10:33:17;24.60;;;14.80;;
5279;SDS011;2663;53.588;10.010;2024-03-02T10:35:43;27.33;;;14.27;;
5279;SDS011;2663;53.588;10.010;2024-03-02T10:38:11;23.30;;;14.73;;
5279;SDS011;2663;53.588;10.010;2024-03-02T10:40:38;23.50;;;14.57;;
5279;SDS011;2663;53.588;10.010;2024-03-02T10:43:05;23.23;;;13.43;;
5279;SDS011;2663;53.588;10.010;2024-03-02T10:45:33;24.50;;;13.80;;
5279;SDS011;2663;53.588;10.010;2024-03-02T10:48:01;22.20;;;13.73;;
5279;SDS011;2663;53.588;10.010;2024-03-02T10:50:28;30.13;;;15.30;;
5279;SDS011;2663;53.588;10.010;2024-03-02T10:52:56;20.40;;;12.80;;
5279;SDS011;2663;53.588;10.010;2024-03-02T10:55:23;30.50;;;13.83;;
5279;SDS011;2663;53.588;10.010;2024-03-02T10:57:51;21.90;;;12.70;;
5279;SDS011;2663;53.588;10.010;2024-03-02T11:00:20;26.47;;;14.50;;
5279;SDS011;2663;53.588;10.010;2024-03-02T11:02:56;23.30;;;12.53;;
5279;SDS011;2663;53.588;10.010;2024-03-02T11:05:29;19.77;;;13.00;;
5279;SDS011;2663;53.588;10.010;2024-03-02T11:08:01;19.80;;;12.93;;
5279;SDS011;2663;53.588;10.010;2024-03-02T11:10:37;22.70;;;13.47;;
5279;SDS011;2663;53.588;10.010;2024-03-02T11:13:14;20.87;;;11.17;;
5279;SDS011;2663;53.588;10.010;2024-03-02T11:15:41;17.60;;;12.10;;
5279;SDS011;2663;53.588;10.010;2024-03-02T11:18:10;19.67;;;12.37;;
5279;SDS011;2663;53.588;10.010;2024-03-02T11:20:38;19.73;;;12.20;;
5279;SDS011;2663;53.588;10.010;2024-03-02T11:23:06;24.33;;;10.70;;
5279;SDS011;2663;53.588;10.010;2024-03-02T11:25:34;21.50;;;11.70;;
5279;SDS011;2663;53.588;10.010;2024-03-02T11:28:02;18.40;;;11.10;;
5279;SDS011;2663;53.588;10.010;2024-03-02T11:33:02;17.90;;;9.83;;
5279;SDS011;2663;53.588;10.010;2024-03-02T11:35:42;14.87;;;9.73;;
5279;SDS011;2663;53.588;10.010;2024-03-02T11:38:13;21.33;;;9.63;;
5279;SDS011;2663;53.588;10.010;2024-03-02T11:40:40;14.80;;;9.43;;
5279;SDS011;2663;53.588;10.010;2024-03-02T11:43:07;14.03;;;8.40;;
5279;SDS011;2663;53.588;10.010;2024-03-02T11:45:36;12.77;;;8.63;;
5279;SDS011;2663;53.588;10.010;2024-03-02T11:48:06;16.70;;;9.47;;
5279;SDS011;2663;53.588;10.010;2024-03-02T11:50:42;21.30;;;10.77;;
5279;SDS011;2663;53.588;10.010;2024-03-02T11:53:13;13.30;;;7.80;;
5279;SDS011;2663;53.588;10.010;2024-03-02T11:55:41;15.50;;;9.80;;
5279;SDS011;2663;53.588;10.010;2024-03-02T11:58:13;13.57;;;8.97;;
5279;SDS011;2663;53.588;10.010;2024-03-02T12:00:40;16.07;;;9.53;;
5279;SDS011;2663;53.588;10.010;2024-03-02T12:03:08;16.10;;;8.50;;
5279;SDS011;2663;53.588;10.010;2024-03-02T12:05:39;17.73;;;8.80;;
5279;SDS011;2663;53.588;10.010;2024-03-02T12:08:06;10.93;;;7.30;;
5279;SDS011;2663;53.588;10.010;2024-03-02T12:10:34;14.50;;;8.60;;
5279;SDS011;2663;53.588;10.010;2024-03-02T12:13:03;12.17;;;7.77;;
5279;SDS011;2663;53.588;10.010;2024-03-02T12:15:34;11.57;;;6.90;;
5279;SDS011;2663;53.588;10.010;2024-03-02T12:18:03;13.70;;;8.60;;
5279;SDS011;2663;53.588;10.010;2024-03-02T12:20:32;13.97;;;8.07;;
5279;SDS011;2663;53.588;10.010;2024-03-02T12:23:01;13.43;;;7.70;;
5279;SDS011;2663;53.588;10.010;2024-03-02T12:25:30;16.57;;;9.37;;
5279;SDS011;2663;53.588;10.010;2024-03-02T12:27:59;11.27;;;7.10;;
5279;SDS011;2663;53.588;10.010;2024-03-02T12:30:29;12.73;;;7.87;;
5279;SDS011;2663;53.588;10.010;2024-03-02T12:32:57;13.30;;;9.30;;
5279;SDS011;2663;53.588;10.010;2024-03-02T12:35:24;13.70;;;8.23;;
5279;SDS011;2663;53.588;10.010;2024-03-02T12:37:52;13.80;;;9.00;;
5279;SDS011;2663;53.588;10.010;2024-03-02T12:40:19;17.60;;;8.27;;
5279;SDS011;2663;53.588;10.010;2024-03-02T12:42:48;14.67;;;7.70;;
5279;SDS011;2663;53.588;10.010;2024-03-02T12:45:16;13.23;;;8.10;;
5279;SDS011;2663;53.588;10.010;2024-03-02T12:47:50;14.20;;;7.97;;
5279;SDS011;2663;53.588;10.010;2024-03-02T12:50:20;17.37;;;8.60;;
5279;SDS011;2663;53.588;10.010;2024-03-02T12:52:51;12.23;;;7.23;;
5279;SDS011;2663;53.588;10.010;2024-03-02T12:55:19;11.83;;;6.70;;
5279;SDS011;2663;53.588;10.010;2024-03-02T12:57:49;11.43;;;6.90;;
5279;SDS011;2663;53.588;10.010;2024-03-02T13:00:18;60.33;;;27.50;;
5279;SDS011;2663;53.588;10.010;2024-03-02T13:02:45;23.30;;;9.73;;
5279;SDS011;2663;53.588;10.010;2024-03-02T13:05:13;13.80;;;7.30;;
5279;SDS011;2663;53.588;10.010;2024-03-02T13:07:40;20.10;;;10.80;;
5279;SDS011;2663;53.588;10.010;2024-03-02T13:10:07;14.50;;;7.27;;
5279;SDS011;2663;53.588;10.010;2024-03-02T13:12:35;16.30;;;9.60;;
5279;SDS011;2663;53.588;10.010;2024-03-02T13:15:03;16.43;;;9.83;;
5279;SDS011;2663;53.588;10.010;2024-03-02T13:17:31;17.83;;;9.80;;
5279;SDS011;2663;53.588;10.010;2024-03-02T13:20:04;18.77;;;8.50;;
5279;SDS011;2663;53.588;10.010;2024-03-02T13:22:34;16.73;;;9.40;;
5279;SDS011;2663;53.588;10.010;2024-03-02T13:25:01;16.27;;;8.93;;
5279;SDS011;2663;53.588;10.010;2024-03-02T13:27:31;29.93;;;17.43;;
5279;SDS011;2663;53.588;10.010;2024-03-02T13:30:03;20.77;;;10.87;;
5279;SDS011;2663;53.588;10.010;2024-03-02T13:32:35;15.67;;;10.00;;
5279;SDS011;2663;53.588;10.010;2024-03-02T13:35:02;23.23;;;13.73;;
5279;SDS011;2663;53.588;10.010;2024-03-02T13:37:29;16.47;;;9.43;;
5279;SDS011;2663;53.588;10.010;2024-03-02T13:39:56;18.33;;;9.40;;
5279;SDS011;2663;53.588;10.010;2024-03-02T13:42:23;19.83;;;9.10;;
5279;SDS011;2663;53.588;10.010;2024-03-02T13:44:50;15.97;;;9.07;;
5279;SDS011;2663;53.588;10.010;2024-03-02T13:47:17;21.47;;;10.10;;
5279;SDS011;2663;53.588;10.010;2024-03-02T13:49:44;17.57;;;9.60;;
5279;SDS011;2663;53.588;10.010;2024-03-02T13:52:13;18.10;;;9.77;;
5279;SDS011;2663;53.588;10.010;2024-03-02T13:54:40;18.30;;;10.20;;
5279;SDS011;2663;53.588;10.010;2024-03-02T13:57:09;18.03;;;10.83;;
5279;SDS011;2663;53.588;10.010;2024-03-02T13:59:36;14.93;;;9.63;;
5279;SDS011;2663;53.588;10.010;2024-03-02T14:02:07;17.23;;;10.37;;
5279;SDS011;2663;53.588;10.010;2024-03-02T14:04:35;23.10;;;10.60;;
5279;SDS011;2663;53.588;10.010;2024-03-02T14:07:03;17.40;;;10.17;;
5279;SDS011;2663;53.588;10.010;2024-03-02T14:09:30;18.43;;;11.17;;
5279;SDS011;2663;53.588;10.010;2024-03-02T14:11:57;22.43;;;12.10;;
5279;SDS011;2663;53.588;10.010;2024-03-02T14:14:26;30.70;;;16.83;;
5279;SDS011;2663;53.588;10.010;2024-03-02T14:16:56;29.33;;;15.23;;
5279;SDS011;2663;53.588;10.010;2024-03-02T14:19:26;21.37;;;11.40;;
5279;SDS011;2663;53.588;10.010;2024-03-02T14:21:53;16.33;;;11.07;;
5279;SDS011;2663;53.588;10.010;2024-03-02T14:24:20;17.53;;;10.17;;
5279;SDS011;2663;53.588;10.010;2024-03-02T14:26:50;18.30;;;10.67;;
5279;SDS011;2663;53.588;10.010;2024-03-02T14:29:18;15.17;;;9.73;;
5279;SDS011;2663;53.588;10.010;2024-03-02T14:31:45;17.73;;;10.20;;
5279;SDS011;2663;53.588;10.010;2024-03-02T14:34:14;18.80;;;9.43;;
5279;SDS011;2663;53.588;10.010;2024-03-02T14:36:41;15.33;;;10.07;;
5279;SDS011;2663;53.588;10.010;2024-03-02T14:39:10;19.50;;;9.70;;
5279;SDS011;2663;53.588;10.010;2024-03-02T14:41:37;17.10;;;10.47;;
5279;SDS011;2663;53.588;10.010;2024-03-02T14:44:04;20.53;;;9.40;;
5279;SDS011;2663;53.588;10.010;2024-03-02T14:46:31;19.23;;;9.80;;
5279;SDS011;2663;53.588;10.010;2024-03-02T14:48:58;15.57;;;8.47;;
5279;SDS011;2663;53.588;10.010;2024-03-02T14:51:25;26.60;;;9.80;;